Terminal Aerodrome Forecast
Issued by NWS Wichita, KS

Home | Current Version | Previous Version | Text Only | Print | Product List | Glossary On
Versions: 1 2 3 4 5 6 7 8 9 10 11 12 13 14 15 16 17 18 19 20
000
FTUS43 KICT 262338
TAFICT
TAF
KICT 262338Z 2700/2724 03004KT P6SM SKC
     FM270800 10005KT P6SM SCT200
     FM271300 13007KT 5SM BR BKN020
     FM271500 14009KT 4SM BR OVC015
     FM271800 16012KT P6SM BKN020=

USA.gov is the U.S. government's official web portal to all federal, state and local government web resources and services.